createdAt,value
2023-02-20T00:05:13.598Z,5.2
2023-02-20T00:20:13.590Z,5.1
2023-02-20T00:35:13.892Z,5.2
2023-02-20T00:50:13.610Z,5.3
2023-02-20T01:05:13.572Z,5.2
2023-02-20T01:20:13.561Z,5.3
2023-02-20T01:35:13.584Z,5.5
2023-02-20T01:50:13.540Z,5.6
2023-02-20T02:05:13.706Z,5.5
2023-02-20T02:20:13.590Z,5.5
2023-02-20T02:35:13.607Z,5.3
2023-02-20T02:50:13.566Z,5.2
2023-02-20T03:05:13.612Z,5.1
2023-02-20T03:20:13.606Z,5.1
2023-02-20T03:35:13.603Z,5
2023-02-20T03:50:13.581Z,4.9
2023-02-20T04:05:13.593Z,5
2023-02-20T04:20:13.626Z,4.9
2023-02-20T04:35:13.599Z,4.9
2023-02-20T04:50:13.603Z,4.8
2023-02-20T05:05:13.577Z,4.8
2023-02-20T05:20:13.572Z,4.6
2023-02-20T05:35:13.592Z,4.6
2023-02-20T05:50:13.535Z,4.5
2023-02-20T06:05:13.606Z,4.4
2023-02-20T06:20:13.601Z,4.3
2023-02-20T06:35:13.583Z,4.4
2023-02-20T06:50:13.588Z,4.4
2023-02-20T07:05:13.556Z,4.4
2023-02-20T07:20:13.591Z,4.4
2023-02-20T07:35:13.595Z,4.5
2023-02-20T07:50:13.574Z,4.6
2023-02-20T08:05:13.625Z,4.8
2023-02-20T08:20:13.600Z,4.9
2023-02-20T08:35:13.587Z,4.9
2023-02-20T08:50:13.582Z,5
2023-02-20T09:05:13.541Z,5.1
2023-02-20T09:20:13.612Z,5.2
2023-02-20T09:35:13.580Z,5.2
2023-02-20T09:50:14.140Z,5.5
2023-02-20T10:05:13.578Z,5.7
2023-02-20T10:20:13.580Z,5.8
2023-02-20T10:35:13.587Z,5.9
2023-02-20T10:50:13.674Z,5.9
2023-02-20T11:05:13.553Z,6.1
2023-02-20T11:20:15.019Z,6.2
2023-02-20T11:35:13.602Z,6.4
2023-02-20T11:50:19.459Z,6.4
2023-02-20T12:05:13.613Z,6.6
2023-02-20T12:20:13.577Z,6.7
2023-02-20T12:35:13.608Z,6.8
2023-02-20T12:50:13.661Z,6.9
2023-02-20T13:05:13.603Z,7
2023-02-20T13:20:13.585Z,7.2
2023-02-20T13:35:13.576Z,7.3
2023-02-20T13:50:13.597Z,7.3
2023-02-20T14:05:13.581Z,7.4
2023-02-20T14:20:14.895Z,7.6
2023-02-20T14:35:13.573Z,7.8
2023-02-20T14:50:13.613Z,7.8
2023-02-20T15:05:13.559Z,8.4
2023-02-20T15:20:13.587Z,9.4
2023-02-20T15:35:13.592Z,8.8
2023-02-20T15:50:13.555Z,8.2
2023-02-20T16:05:13.565Z,8.4
2023-02-20T16:20:13.551Z,8.1
2023-02-20T16:35:13.579Z,7.4
2023-02-20T16:50:13.544Z,7.4
2023-02-20T17:05:13.632Z,7.3
2023-02-20T17:20:13.613Z,7.2
2023-02-20T17:35:13.555Z,7.2
2023-02-20T17:50:13.597Z,7.1
2023-02-20T18:05:13.573Z,6.8
2023-02-20T18:20:13.572Z,6.8
2023-02-20T18:35:13.568Z,6.8
2023-02-20T18:50:13.559Z,6.9
2023-02-20T19:05:13.581Z,6.9
2023-02-20T19:20:13.573Z,6.9
2023-02-20T19:35:13.558Z,6.9
2023-02-20T19:50:13.611Z,6.8
2023-02-20T20:05:13.584Z,6.8
2023-02-20T20:20:13.591Z,6.6
2023-02-20T20:35:13.576Z,6.6
2023-02-20T20:50:13.587Z,6.6
2023-02-20T21:05:13.572Z,6.5
2023-02-20T21:20:13.596Z,6.5
2023-02-20T21:35:13.556Z,6.5
2023-02-20T21:50:13.549Z,6.5
2023-02-20T22:05:13.581Z,6.6
2023-02-20T22:20:15.392Z,6.6
2023-02-20T22:35:13.529Z,6.6
2023-02-20T22:50:13.589Z,6.6
2023-02-20T23:05:13.598Z,6.6
2023-02-20T23:20:13.598Z,6.6
2023-02-20T23:35:13.590Z,6.6
2023-02-20T23:50:13.551Z,6.6
